createdAt,value
2018-12-24T00:00:59.655Z,3.67
2018-12-24T00:03:50.289Z,3.70
2018-12-24T00:06:40.655Z,3.33
2018-12-24T00:09:31.378Z,3.97
2018-12-24T00:12:24.565Z,3.43
2018-12-24T00:15:14.769Z,3.70
2018-12-24T00:18:06.599Z,3.77
2018-12-24T00:20:56.735Z,4.00
2018-12-24T00:23:47.126Z,4.10
2018-12-24T00:26:37.737Z,3.60
2018-12-24T00:29:28.451Z,3.60
2018-12-24T00:32:19.019Z,3.83
2018-12-24T00:35:09.683Z,3.60
2018-12-24T00:38:00.082Z,3.73
2018-12-24T00:40:50.850Z,4.10
2018-12-24T00:43:41.444Z,4.20
2018-12-24T00:46:32.227Z,4.00
2018-12-24T00:49:22.582Z,4.17
2018-12-24T00:52:13.279Z,4.30
2018-12-24T00:55:03.872Z,4.50
2018-12-24T00:57:54.407Z,4.37
2018-12-24T01:00:45.015Z,4.67
2018-12-24T01:03:35.634Z,4.90
2018-12-24T01:06:26.219Z,4.93
2018-12-24T01:09:16.678Z,5.40
2018-12-24T01:12:07.258Z,6.00
2018-12-24T01:14:58.333Z,6.33
2018-12-24T01:17:48.771Z,6.53
2018-12-24T01:20:39.662Z,6.50
2018-12-24T01:23:30.252Z,6.43
2018-12-24T01:26:20.709Z,5.80
2018-12-24T01:29:11.332Z,5.63
2018-12-24T01:32:01.880Z,5.70
2018-12-24T01:34:52.329Z,6.00
2018-12-24T01:37:42.841Z,6.60
2018-12-24T01:40:33.260Z,5.87
2018-12-24T01:43:23.969Z,7.10
2018-12-24T01:46:14.485Z,7.20
2018-12-24T01:49:05.182Z,6.60
2018-12-24T01:51:56.193Z,7.20
2018-12-24T01:54:49.489Z,4.30
2018-12-24T01:57:41.014Z,3.20
2018-12-24T02:00:31.311Z,3.30
2018-12-24T02:03:22.134Z,3.40
2018-12-24T02:06:12.506Z,3.03
2018-12-24T02:09:03.102Z,3.03
2018-12-24T02:11:56.416Z,3.27
2018-12-24T02:14:46.915Z,3.30
2018-12-24T02:17:37.451Z,3.63
2018-12-24T02:20:28.084Z,4.20
2018-12-24T02:23:18.474Z,4.27
2018-12-24T02:26:08.987Z,3.50
2018-12-24T02:28:59.691Z,3.70
2018-12-24T02:31:50.605Z,4.13
2018-12-24T02:34:41.171Z,4.57
2018-12-24T02:37:31.916Z,4.40
2018-12-24T02:40:22.821Z,4.60
2018-12-24T02:43:13.852Z,3.90
2018-12-24T02:46:04.517Z,3.63
2018-12-24T02:48:55.052Z,3.90
2018-12-24T02:51:45.601Z,3.90
2018-12-24T02:54:35.922Z,4.50
2018-12-24T02:57:26.691Z,4.63
2018-12-24T03:00:16.989Z,4.77
2018-12-24T03:03:07.627Z,4.87
2018-12-24T03:05:58.106Z,5.30
2018-12-24T03:08:48.903Z,5.47
2018-12-24T03:11:39.538Z,5.60
2018-12-24T03:14:30.091Z,5.63
2018-12-24T03:17:20.365Z,5.73
2018-12-24T03:20:11.076Z,6.97
2018-12-24T03:23:01.492Z,6.57
2018-12-24T03:25:52.197Z,7.40
2018-12-24T03:28:42.742Z,7.43
2018-12-24T03:31:33.417Z,7.00
2018-12-24T03:34:24.099Z,7.37
2018-12-24T03:37:14.810Z,8.30
2018-12-24T03:40:05.708Z,7.77
2018-12-24T03:42:56.305Z,8.13
2018-12-24T03:45:46.874Z,8.07
2018-12-24T03:48:37.835Z,7.63
2018-12-24T03:51:31.141Z,8.00
2018-12-24T03:54:21.746Z,7.37
2018-12-24T03:57:12.481Z,7.63
2018-12-24T04:00:03.295Z,7.80
2018-12-24T04:02:55.034Z,7.67
2018-12-24T04:05:45.594Z,7.23
2018-12-24T04:08:35.830Z,7.63
2018-12-24T04:11:26.512Z,7.70
2018-12-24T04:14:16.696Z,7.10
2018-12-24T04:17:07.368Z,7.23
2018-12-24T04:19:57.785Z,6.20
2018-12-24T04:22:48.565Z,5.80
2018-12-24T04:25:42.066Z,6.43
2018-12-24T04:28:34.393Z,5.87
2018-12-24T04:31:24.809Z,5.50
2018-12-24T04:34:15.333Z,5.67
2018-12-24T04:37:05.899Z,5.50
2018-12-24T04:39:56.634Z,5.70
2018-12-24T04:42:47.198Z,6.00
2018-12-24T04:45:37.607Z,6.47
2018-12-24T04:48:28.292Z,5.90
2018-12-24T04:51:18.869Z,6.07
2018-12-24T04:54:09.484Z,6.10
2018-12-24T04:57:00.066Z,5.50
2018-12-24T04:59:50.217Z,6.10
2018-12-24T05:02:40.579Z,5.73
2018-12-24T05:05:31.419Z,5.83
2018-12-24T05:08:22.152Z,5.93
2018-12-24T05:11:12.561Z,5.67
2018-12-24T05:14:03.348Z,6.20
2018-12-24T05:16:53.942Z,6.47
2018-12-24T05:19:44.970Z,5.50
2018-12-24T05:22:35.821Z,5.63
2018-12-24T05:25:26.664Z,6.40
2018-12-24T05:28:17.186Z,6.13
2018-12-24T05:31:07.842Z,6.10
2018-12-24T05:33:58.233Z,5.97
2018-12-24T05:36:49.045Z,6.00
2018-12-24T05:39:39.645Z,6.63
2018-12-24T05:42:30.435Z,6.93
2018-12-24T05:45:21.894Z,6.57
2018-12-24T05:48:12.789Z,6.57
2018-12-24T05:51:05.143Z,6.53
2018-12-24T05:53:55.875Z,6.63
2018-12-24T05:56:46.518Z,6.90
2018-12-24T05:59:37.177Z,6.43
2018-12-24T06:02:27.602Z,6.63
2018-12-24T06:05:18.262Z,6.77
2018-12-24T06:08:08.716Z,6.60
2018-12-24T06:10:59.021Z,6.70
2018-12-24T06:13:57.747Z,6.10
2018-12-24T06:16:41.699Z,6.17
2018-12-24T06:19:32.101Z,6.03
2018-12-24T06:22:22.695Z,5.60
2018-12-24T06:25:12.794Z,5.47
2018-12-24T06:28:03.362Z,5.00
2018-12-24T06:30:54.054Z,4.93
2018-12-24T06:33:44.676Z,6.10
2018-12-24T06:36:35.401Z,4.73
2018-12-24T06:39:26.604Z,6.30
2018-12-24T06:42:18.278Z,5.63
2018-12-24T06:45:09.197Z,5.10
2018-12-24T06:47:59.805Z,6.13
2018-12-24T06:50:50.290Z,5.33
2018-12-24T06:53:40.691Z,5.77
2018-12-24T06:56:31.173Z,5.93
2018-12-24T06:59:21.450Z,5.60
2018-12-24T07:02:14.860Z,5.83
2018-12-24T07:05:05.240Z,4.97
2018-12-24T07:07:55.953Z,5.00
2018-12-24T07:10:46.637Z,4.57
2018-12-24T07:13:37.090Z,4.77
2018-12-24T07:16:27.833Z,4.63
2018-12-24T07:19:18.224Z,5.40
2018-12-24T07:22:08.924Z,6.07
2018-12-24T07:24:59.994Z,6.10
2018-12-24T07:27:50.857Z,5.87
2018-12-24T07:30:41.427Z,5.70
2018-12-24T07:33:32.214Z,6.20
2018-12-24T07:36:23.453Z,6.20
2018-12-24T07:39:14.210Z,5.40
2018-12-24T07:42:05.264Z,5.33
2018-12-24T07:44:56.386Z,5.12
2018-12-24T07:47:47.304Z,5.87
2018-12-24T07:50:38.251Z,5.03
2018-12-24T07:53:29.590Z,5.15
2018-12-24T07:56:20.960Z,5.17
2018-12-24T07:59:12.293Z,4.95
2018-12-24T08:02:03.325Z,5.00
2018-12-24T08:04:54.407Z,4.75
2018-12-24T08:07:45.718Z,5.22
2018-12-24T08:10:36.720Z,6.20
2018-12-24T08:13:27.665Z,6.30
2018-12-24T08:16:19.034Z,6.33
2018-12-24T08:19:09.332Z,6.57
2018-12-24T08:22:00.294Z,6.70
2018-12-24T08:24:50.991Z,6.07
2018-12-24T08:27:41.495Z,5.90
2018-12-24T08:30:32.033Z,5.57
2018-12-24T08:33:25.002Z,5.93
2018-12-24T08:36:15.327Z,5.83
2018-12-24T08:39:07.592Z,6.30
2018-12-24T08:41:58.353Z,5.67
2018-12-24T08:44:48.744Z,4.53
2018-12-24T08:47:39.263Z,4.73
2018-12-24T08:50:29.904Z,3.60
2018-12-24T08:53:23.061Z,3.53
2018-12-24T08:56:13.586Z,3.30
2018-12-24T08:59:04.279Z,3.10
2018-12-24T09:01:54.996Z,3.97
2018-12-24T09:04:45.760Z,3.50
2018-12-24T09:07:36.286Z,3.70
2018-12-24T09:10:27.045Z,3.47
2018-12-24T09:13:17.903Z,3.80
2018-12-24T09:16:08.009Z,3.70
2018-12-24T09:18:59.886Z,3.30
2018-12-24T09:21:50.011Z,5.90
2018-12-24T09:24:40.678Z,4.77
2018-12-24T09:27:30.937Z,5.23
2018-12-24T09:30:22.361Z,4.17
2018-12-24T09:33:16.435Z,4.90
2018-12-24T09:36:06.940Z,5.03
2018-12-24T09:38:57.395Z,5.10
2018-12-24T09:41:48.168Z,5.10
2018-12-24T09:44:38.745Z,4.03
2018-12-24T09:47:29.253Z,4.97
2018-12-24T09:50:20.878Z,4.70
2018-12-24T09:53:11.538Z,4.73
2018-12-24T09:56:04.137Z,3.70
2018-12-24T09:58:55.983Z,3.30
2018-12-24T10:01:46.352Z,4.10
2018-12-24T10:04:45.319Z,4.23
2018-12-24T10:07:40.410Z,4.47
2018-12-24T10:10:31.876Z,4.63
2018-12-24T10:13:22.329Z,4.20
2018-12-24T10:16:12.959Z,4.27
2018-12-24T10:19:03.602Z,3.00
2018-12-24T10:21:54.256Z,2.40
2018-12-24T10:24:44.533Z,2.50
2018-12-24T10:27:35.255Z,2.30
2018-12-24T10:30:26.033Z,2.37
2018-12-24T10:33:17.025Z,2.60
2018-12-24T10:36:07.457Z,2.00
2018-12-24T10:38:58.202Z,2.50
2018-12-24T10:41:48.596Z,2.70
2018-12-24T10:44:38.945Z,2.50
2018-12-24T10:47:29.854Z,2.40
2018-12-24T10:50:20.283Z,2.77
2018-12-24T10:53:10.934Z,2.57
2018-12-24T10:56:01.225Z,3.00
2018-12-24T10:58:52.111Z,3.20
2018-12-24T11:01:44.680Z,3.00
2018-12-24T11:04:34.499Z,3.30
2018-12-24T11:07:25.321Z,3.73
2018-12-24T11:10:15.874Z,3.40
2018-12-24T11:13:09.913Z,3.67
2018-12-24T11:16:00.822Z,3.50
2018-12-24T11:18:51.427Z,3.50
2018-12-24T11:21:42.348Z,3.47
2018-12-24T11:24:33.045Z,3.13
2018-12-24T11:27:24.053Z,3.20
2018-12-24T11:30:14.923Z,3.10
2018-12-24T11:33:05.298Z,3.07
2018-12-24T11:35:56.057Z,2.73
2018-12-24T11:38:46.770Z,2.53
2018-12-24T11:41:38.436Z,2.50
2018-12-24T11:44:28.883Z,2.60
2018-12-24T11:47:19.171Z,3.10
2018-12-24T11:50:09.890Z,3.30
2018-12-24T11:53:00.398Z,3.20
2018-12-24T11:55:50.735Z,2.90
2018-12-24T11:58:41.530Z,2.80
2018-12-24T12:01:32.242Z,3.10
2018-12-24T12:04:23.073Z,2.93
2018-12-24T12:07:13.746Z,3.40
2018-12-24T12:10:03.979Z,3.17
2018-12-24T12:12:55.054Z,3.77
2018-12-24T12:15:45.814Z,3.60
2018-12-24T12:18:36.343Z,3.70
2018-12-24T12:21:26.617Z,3.43
2018-12-24T12:24:16.815Z,3.60
2018-12-24T12:27:07.718Z,3.83
2018-12-24T12:29:58.319Z,3.60
2018-12-24T12:32:48.808Z,3.80
2018-12-24T12:35:39.689Z,3.40
2018-12-24T12:38:30.482Z,3.20
2018-12-24T12:41:21.210Z,3.00
2018-12-24T12:44:11.429Z,3.30
2018-12-24T12:47:01.989Z,3.30
2018-12-24T12:49:52.778Z,3.37
2018-12-24T12:52:43.659Z,3.43
2018-12-24T12:55:34.343Z,3.47
2018-12-24T12:58:25.289Z,3.23
2018-12-24T13:01:17.679Z,3.23
2018-12-24T13:04:08.050Z,3.60
2018-12-24T13:07:00.228Z,3.50
2018-12-24T13:09:50.891Z,3.40
2018-12-24T13:12:41.491Z,3.60
2018-12-24T13:15:32.029Z,3.60
2018-12-24T13:18:22.836Z,3.73
2018-12-24T13:21:13.569Z,3.87
2018-12-24T13:24:04.286Z,3.50
2018-12-24T13:26:54.872Z,3.63
2018-12-24T13:29:45.417Z,3.70
2018-12-24T13:32:37.041Z,3.63
2018-12-24T13:35:27.662Z,3.63
2018-12-24T13:38:18.080Z,3.33
2018-12-24T13:41:08.818Z,3.73
2018-12-24T13:43:59.630Z,3.73
2018-12-24T13:46:49.936Z,4.27
2018-12-24T13:49:41.635Z,4.00
2018-12-24T13:52:32.447Z,4.10
2018-12-24T13:55:23.930Z,4.60
2018-12-24T13:58:14.781Z,4.00
2018-12-24T14:01:05.126Z,4.00
2018-12-24T14:03:56.014Z,4.40
2018-12-24T14:06:46.557Z,4.50
2018-12-24T14:09:36.889Z,4.70
2018-12-24T14:12:27.263Z,3.90
2018-12-24T14:15:17.708Z,4.30
2018-12-24T14:18:08.326Z,4.13
2018-12-24T14:20:58.809Z,4.37
2018-12-24T14:23:49.456Z,4.03
2018-12-24T14:26:40.169Z,4.00
2018-12-24T14:29:30.460Z,3.67
2018-12-24T14:32:20.972Z,3.60
2018-12-24T14:35:11.593Z,3.23
2018-12-24T14:38:02.282Z,3.17
2018-12-24T14:40:52.990Z,3.03
2018-12-24T14:43:43.389Z,3.03
2018-12-24T14:46:33.995Z,4.00
2018-12-24T14:49:24.677Z,2.77
2018-12-24T14:52:15.958Z,2.90
2018-12-24T14:55:06.261Z,2.73
2018-12-24T14:57:57.100Z,2.70
2018-12-24T15:00:47.790Z,2.80
2018-12-24T15:03:38.465Z,2.60
2018-12-24T15:06:29.265Z,2.70
2018-12-24T15:09:19.937Z,2.83
2018-12-24T15:12:10.643Z,2.77
2018-12-24T15:15:04.550Z,2.97
2018-12-24T15:17:55.209Z,2.63
2018-12-24T15:20:45.951Z,2.70
2018-12-24T15:23:36.834Z,2.93
2018-12-24T15:26:27.864Z,2.80
2018-12-24T15:29:18.381Z,3.20
2018-12-24T15:32:09.064Z,3.20
2018-12-24T15:34:59.473Z,3.03
2018-12-24T15:37:49.639Z,3.13
2018-12-24T15:40:40.083Z,3.37
2018-12-24T15:43:30.721Z,3.30
2018-12-24T15:46:21.359Z,2.80
2018-12-24T15:49:11.854Z,2.80
2018-12-24T15:52:04.261Z,3.00
2018-12-24T15:54:56.619Z,3.20
2018-12-24T15:57:46.772Z,2.90
2018-12-24T16:00:37.131Z,2.80
2018-12-24T16:03:28.007Z,2.80
2018-12-24T16:06:18.740Z,2.87
2018-12-24T16:09:09.691Z,3.00
2018-12-24T16:12:00.337Z,3.07
2018-12-24T16:14:50.730Z,2.80
2018-12-24T16:17:41.157Z,2.90
2018-12-24T16:20:32.062Z,3.07
2018-12-24T16:23:22.446Z,3.17
2018-12-24T16:26:13.201Z,3.00
2018-12-24T16:29:04.090Z,3.10
2018-12-24T16:31:54.491Z,3.10
2018-12-24T16:34:45.069Z,4.00
2018-12-24T16:37:35.951Z,3.30
2018-12-24T16:40:26.755Z,3.73
2018-12-24T16:43:17.557Z,3.30
2018-12-24T16:46:08.257Z,3.40
2018-12-24T16:48:58.529Z,3.40
2018-12-24T16:51:48.749Z,3.33
2018-12-24T16:54:39.233Z,3.40
2018-12-24T16:57:29.647Z,3.60
2018-12-24T17:00:20.134Z,3.13
2018-12-24T17:03:10.545Z,3.07
2018-12-24T17:06:01.056Z,3.37
2018-12-24T17:08:51.500Z,3.27
2018-12-24T17:11:44.066Z,3.17
2018-12-24T17:14:34.457Z,2.90
2018-12-24T17:17:25.215Z,3.10
2018-12-24T17:20:15.951Z,3.30
2018-12-24T17:23:06.806Z,3.00
2018-12-24T17:25:57.555Z,3.13
2018-12-24T17:28:47.951Z,3.17
2018-12-24T17:31:38.233Z,3.63
2018-12-24T17:34:31.339Z,3.20
2018-12-24T17:37:23.104Z,3.03
2018-12-24T17:40:13.585Z,3.37
2018-12-24T17:43:04.011Z,3.10
2018-12-24T17:45:54.532Z,3.00
2018-12-24T17:48:45.307Z,2.90
2018-12-24T17:51:35.735Z,2.93
2018-12-24T17:54:26.211Z,2.80
2018-12-24T17:57:16.793Z,2.73
2018-12-24T18:00:07.812Z,2.43
2018-12-24T18:02:58.413Z,2.37
2018-12-24T18:05:49.221Z,2.47
2018-12-24T18:08:40.039Z,2.40
2018-12-24T18:11:32.541Z,2.47
2018-12-24T18:14:25.368Z,2.50
2018-12-24T18:17:15.959Z,2.73
2018-12-24T18:20:06.678Z,2.63
2018-12-24T18:22:57.156Z,2.47
2018-12-24T18:25:47.867Z,2.90
2018-12-24T18:28:38.383Z,2.87
2018-12-24T18:31:29.190Z,2.80
2018-12-24T18:34:19.752Z,2.70
2018-12-24T18:37:10.417Z,2.90
2018-12-24T18:40:01.017Z,2.80
2018-12-24T18:42:51.560Z,2.60
2018-12-24T18:45:42.316Z,2.30
2018-12-24T18:48:33.070Z,2.47
2018-12-24T18:51:23.932Z,2.27
2018-12-24T18:54:14.948Z,2.33
2018-12-24T18:57:05.231Z,2.57
2018-12-24T18:59:55.603Z,2.60
2018-12-24T19:02:46.216Z,2.60
2018-12-24T19:05:37.077Z,2.67
2018-12-24T19:08:28.926Z,2.70
2018-12-24T19:11:19.246Z,2.90
2018-12-24T19:14:09.952Z,3.00
2018-12-24T19:17:00.677Z,2.50
2018-12-24T19:19:51.145Z,2.87
2018-12-24T19:22:41.609Z,3.00
2018-12-24T19:25:34.393Z,2.73
2018-12-24T19:28:25.167Z,2.67
2018-12-24T19:31:15.748Z,2.70
2018-12-24T19:34:06.234Z,2.40
2018-12-24T19:36:57.004Z,2.90
2018-12-24T19:39:47.775Z,2.80
2018-12-24T19:42:38.480Z,2.60
2018-12-24T19:45:29.004Z,2.47
2018-12-24T19:48:19.647Z,2.80
2018-12-24T19:51:10.306Z,2.63
2018-12-24T19:54:00.567Z,2.90
2018-12-24T19:56:50.873Z,2.93
2018-12-24T19:59:41.376Z,3.10
2018-12-24T20:02:31.892Z,3.00
2018-12-24T20:05:22.905Z,3.00
2018-12-24T20:08:14.006Z,2.47
2018-12-24T20:11:06.667Z,3.23
2018-12-24T20:13:57.096Z,3.03
2018-12-24T20:16:47.769Z,2.70
2018-12-24T20:19:38.062Z,2.70
2018-12-24T20:22:28.323Z,2.90
2018-12-24T20:25:18.616Z,3.10
2018-12-24T20:28:09.030Z,3.03
2018-12-24T20:30:59.741Z,2.90
2018-12-24T20:33:50.425Z,2.87
2018-12-24T20:36:41.115Z,2.73
2018-12-24T20:39:31.641Z,3.37
2018-12-24T20:42:25.073Z,3.73
2018-12-24T20:45:15.427Z,4.80
2018-12-24T20:48:06.812Z,5.70
2018-12-24T20:50:57.824Z,6.67
2018-12-24T20:53:48.680Z,5.60
2018-12-24T20:56:39.480Z,5.67
2018-12-24T20:59:30.001Z,5.53
2018-12-24T21:02:20.502Z,6.43
2018-12-24T21:05:11.287Z,6.80
2018-12-24T21:08:02.155Z,8.90
2018-12-24T21:10:52.855Z,8.90
2018-12-24T21:13:43.376Z,10.20
2018-12-24T21:16:33.951Z,10.17
2018-12-24T21:19:26.566Z,10.50
2018-12-24T21:22:17.000Z,10.27
2018-12-24T21:25:07.574Z,10.93
2018-12-24T21:27:59.978Z,10.83
2018-12-24T21:30:50.846Z,10.97
2018-12-24T21:33:41.634Z,10.03
2018-12-24T21:36:32.200Z,9.63
2018-12-24T21:39:23.098Z,10.37
2018-12-24T21:42:13.672Z,10.00
2018-12-24T21:45:04.459Z,9.97
2018-12-24T21:47:54.943Z,10.50
2018-12-24T21:50:45.666Z,10.57
2018-12-24T21:53:35.863Z,10.60
2018-12-24T21:56:26.544Z,11.43
2018-12-24T21:59:17.421Z,10.70
2018-12-24T22:02:07.856Z,10.27
2018-12-24T22:05:02.248Z,8.07
2018-12-24T22:07:52.637Z,7.77
2018-12-24T22:10:43.188Z,5.70
2018-12-24T22:13:33.693Z,3.20
2018-12-24T22:16:24.315Z,2.50
2018-12-24T22:19:17.023Z,2.10
2018-12-24T22:22:07.537Z,2.60
2018-12-24T22:24:58.381Z,2.23
2018-12-24T22:27:49.004Z,2.90
2018-12-24T22:30:40.704Z,2.33
2018-12-24T22:33:31.610Z,2.20
2018-12-24T22:36:22.312Z,2.40
2018-12-24T22:39:12.910Z,2.60
2018-12-24T22:42:03.488Z,2.23
2018-12-24T22:44:54.014Z,2.10
2018-12-24T22:47:44.748Z,2.00
2018-12-24T22:50:35.401Z,1.80
2018-12-24T22:53:25.974Z,1.97
2018-12-24T22:56:16.413Z,1.80
2018-12-24T22:59:07.242Z,2.03
2018-12-24T23:01:58.065Z,1.60
2018-12-24T23:04:48.725Z,1.70
2018-12-24T23:07:39.320Z,2.00
2018-12-24T23:10:29.902Z,1.70
2018-12-24T23:13:20.702Z,1.40
2018-12-24T23:16:11.203Z,1.50
2018-12-24T23:19:01.907Z,1.20
2018-12-24T23:21:52.301Z,1.47
2018-12-24T23:24:42.861Z,1.27
2018-12-24T23:27:34.848Z,1.40
2018-12-24T23:30:25.494Z,1.30
2018-12-24T23:33:15.905Z,1.20
2018-12-24T23:36:07.987Z,1.10
2018-12-24T23:38:58.281Z,1.00
2018-12-24T23:41:48.777Z,1.17
2018-12-24T23:44:39.538Z,1.33
2018-12-24T23:47:29.932Z,1.13
2018-12-24T23:50:20.682Z,1.13
2018-12-24T23:53:11.372Z,1.07
2018-12-24T23:56:04.147Z,1.50
2018-12-24T23:58:54.886Z,1.00
